Time;durP1;ratioP1;P1;durP2;ratioP2;P2;SDS_P1;SDS_P2;PMS_P1;PMS_P2;Temp;Humidity;BMP_temperature;BMP_pressure;BME280_temperature;BME280_humidity;BME280_pressure;Samples;Min_cycle;Max_cycle;Signal;HPM_P1;HPM_P2
2023/04/01 00:00:55;;;;;;;0.00;0.00;;;10.00;99.90;;;;;;5090861;28;20191;-58
2023/04/01 00:03:22;;;;;;;0.00;0.00;;;9.90;99.90;;;;;;5090837;28;20251;-58
2023/04/01 00:05:47;;;;;;;0.00;0.00;;;9.90;99.90;;;;;;5090655;28;20176;-58
2023/04/01 00:08:13;;;;;;;0.00;0.00;;;10.00;99.90;;;;;;5090837;28;20199;-58
2023/04/01 00:10:39;;;;;;;0.00;0.00;;;10.00;99.90;;;;;;5090824;28;20180;-58
2023/04/01 00:13:05;;;;;;;0.00;0.00;;;10.00;99.90;;;;;;5090698;28;20183;-58
2023/04/01 00:15:31;;;;;;;0.00;0.00;;;10.00;99.90;;;;;;5090553;28;20215;-58
2023/04/01 00:17:57;;;;;;;0.00;0.00;;;10.00;99.90;;;;;;5090474;28;20172;-58
2023/04/01 00:20:22;;;;;;;0.00;0.00;;;10.00;99.90;;;;;;5094115;28;20187;-58
2023/04/01 00:22:48;;;;;;;0.00;0.00;;;10.00;99.90;;;;;;5094172;28;20172;-57
2023/04/01 00:25:14;;;;;;;0.00;0.00;;;10.00;99.90;;;;;;5094022;28;20169;-57
2023/04/01 00:27:40;;;;;;;0.00;0.00;;;10.00;99.90;;;;;;5093945;28;20223;-58
2023/04/01 00:30:06;;;;;;;0.00;0.00;;;10.00;99.90;;;;;;5093974;28;20172;-58
2023/04/01 00:32:31;;;;;;;0.00;0.00;;;10.00;99.90;;;;;;5093874;28;20229;-58
2023/04/01 00:34:59;;;;;;;0.00;0.00;;;9.90;99.90;;;;;;5093788;28;20208;-58
2023/04/01 00:37:25;;;;;;;0.00;0.00;;;9.90;99.90;;;;;;5093639;28;20215;-58
2023/04/01 00:39:51;;;;;;;0.00;0.00;;;9.90;99.90;;;;;;5093563;28;20219;-58
2023/04/01 00:42:16;;;;;;;0.00;0.00;;;9.90;99.90;;;;;;5093970;28;20203;-58
2023/04/01 00:44:42;;;;;;;0.00;0.00;;;9.90;99.90;;;;;;5093801;28;20176;-58
2023/04/01 00:47:09;;;;;;;0.00;0.00;;;9.90;99.90;;;;;;5091168;28;20199;-58
2023/04/01 00:49:43;;;;;;;0.00;0.00;;;9.90;99.90;;;;;;5087460;28;20253;-58
2023/04/01 00:52:13;;;;;;;0.00;0.00;;;9.90;99.90;;;;;;5092938;28;20179;-58
2023/04/01 00:54:44;;;;;;;0.00;0.00;;;10.00;99.90;;;;;;5074574;28;20261;-58
2023/04/01 00:57:15;;;;;;;0.00;0.00;;;10.00;99.90;;;;;;5093137;28;20208;-58
2023/04/01 00:59:44;;;;;;;0.00;0.00;;;10.00;99.90;;;;;;5081797;28;20738;-58
2023/04/01 01:02:11;;;;;;;0.00;0.00;;;10.00;99.90;;;;;;5093862;28;20587;-58
2023/04/01 01:04:37;;;;;;;0.00;0.00;;;10.00;99.90;;;;;;5093473;28;20179;-58
2023/04/01 01:07:26;;;;;;;0.00;0.00;;;10.00;99.90;;;;;;5093672;28;20173;-58
2023/04/01 01:10:07;;;;;;;0.03;0.03;;;10.00;99.90;;;;;;5093343;28;20196;-58
2023/04/01 01:12:54;;;;;;;0.00;0.00;;;10.00;99.90;;;;;;5093543;28;20204;-58
2023/04/01 01:15:30;;;;;;;0.00;0.00;;;10.00;99.90;;;;;;5092917;28;20295;-58
2023/04/01 01:18:35;;;;;;;0.00;0.00;;;9.90;99.90;;;;;;5092514;28;20664;-58
2023/04/01 01:21:35;;;;;;;0.00;0.00;;;9.90;99.90;;;;;;5092838;28;20191;-58
2023/04/01 01:24:26;;;;;;;0.00;0.00;;;9.90;99.90;;;;;;5093117;28;20230;-58
2023/04/01 01:27:04;;;;;;;0.00;0.00;;;9.80;99.90;;;;;;5092503;28;20578;-59
2023/04/01 01:30:09;;;;;;;0.00;0.00;;;9.80;99.90;;;;;;5092833;28;20214;-58
2023/04/01 01:33:06;;;;;;;0.00;0.00;;;9.90;99.90;;;;;;5093017;28;20179;-58
2023/04/01 01:35:34;;;;;;;0.00;0.00;;;9.90;99.90;;;;;;5072644;28;20703;-58
2023/04/01 01:38:12;;;;;;;0.00;0.00;;;9.90;99.90;;;;;;5085022;28;20183;-58
2023/04/01 01:40:42;;;;;;;0.00;0.00;;;9.90;99.90;;;;;;5074473;28;20191;-58
2023/04/01 01:43:11;;;;;;;0.00;0.00;;;9.90;99.90;;;;;;5092920;28;20165;-58
2023/04/01 01:45:42;;;;;;;0.00;0.00;;;10.00;99.90;;;;;;5092620;28;20176;-58
2023/04/01 01:48:10;;;;;;;0.00;0.00;;;10.00;99.90;;;;;;5092513;28;20180;-58
2023/04/01 01:50:37;;;;;;;0.00;0.00;;;10.00;99.90;;;;;;5082291;28;20188;-58
2023/04/01 01:53:09;;;;;;;0.00;0.00;;;10.00;99.90;;;;;;5087703;28;20179;-58
2023/04/01 01:55:40;;;;;;;0.10;0.10;;;9.90;99.90;;;;;;5092129;28;20226;-58
2023/04/01 01:58:23;;;;;;;0.00;0.00;;;9.90;99.90;;;;;;5092549;28;20263;-58
2023/04/01 02:00:54;;;;;;;0.00;0.00;;;9.90;99.90;;;;;;5092213;28;20188;-58
2023/04/01 02:03:22;;;;;;;0.00;0.00;;;9.80;99.90;;;;;;5092179;28;20200;-58
2023/04/01 02:05:51;;;;;;;0.00;0.00;;;9.80;99.90;;;;;;5091743;28;20277;-58
2023/04/01 02:08:24;;;;;;;0.00;0.00;;;9.80;99.90;;;;;;5092207;28;20176;-58
2023/04/01 02:10:58;;;;;;;0.00;0.00;;;9.70;99.90;;;;;;5091418;28;20176;-57
2023/04/01 02:14:10;;;;;;;0.00;0.00;;;9.70;99.90;;;;;;5092004;28;20168;-58
2023/04/01 02:16:45;;;;;;;0.00;0.00;;;9.70;99.90;;;;;;5084001;28;20282;-58
2023/04/01 02:19:13;;;;;;;0.00;0.00;;;9.60;99.90;;;;;;5092107;28;20180;-58
2023/04/01 02:21:41;;;;;;;0.00;0.00;;;9.60;99.90;;;;;;5091761;28;20168;-58
2023/04/01 02:24:11;;;;;;;0.00;0.00;;;9.60;99.90;;;;;;5092142;28;20176;-58
2023/04/01 02:26:37;;;;;;;0.00;0.00;;;9.60;99.90;;;;;;5091147;28;20216;-58
2023/04/01 02:29:05;;;;;;;0.00;0.00;;;9.60;99.90;;;;;;5091924;28;20694;-58
2023/04/01 02:31:31;;;;;;;0.00;0.00;;;9.60;99.90;;;;;;5091659;28;20204;-58
2023/04/01 02:33:58;;;;;;;0.00;0.00;;;9.60;99.90;;;;;;5091617;28;20265;-58
2023/04/01 02:36:23;;;;;;;0.00;0.00;;;9.60;99.90;;;;;;5092019;28;20186;-58
2023/04/01 02:38:50;;;;;;;0.00;0.00;;;9.70;99.90;;;;;;5091435;28;20168;-58
2023/04/01 02:41:16;;;;;;;0.00;0.00;;;9.60;99.90;;;;;;5091759;28;20180;-58
2023/04/01 02:43:42;;;;;;;0.00;0.00;;;9.60;99.90;;;;;;5073326;28;20176;-58
2023/04/01 02:46:07;;;;;;;0.00;0.00;;;9.60;99.90;;;;;;5091425;28;20195;-58
2023/04/01 02:48:33;;;;;;;0.00;0.00;;;9.60;99.90;;;;;;5091484;28;20169;-58
2023/04/01 02:50:58;;;;;;;0.00;0.00;;;9.60;99.90;;;;;;5085364;28;20641;-58
2023/04/01 02:53:24;;;;;;;0.00;0.00;;;9.60;99.90;;;;;;5079635;28;20682;-58
2023/04/01 02:55:51;;;;;;;0.00;0.00;;;9.60;99.90;;;;;;5085316;28;20227;-58
2023/04/01 02:58:17;;;;;;;0.00;0.00;;;9.60;99.90;;;;;;5091279;28;20219;-58
2023/04/01 03:00:43;;;;;;;0.00;0.00;;;9.60;99.90;;;;;;5091273;28;20596;-58
2023/04/01 03:03:09;;;;;;;0.00;0.00;;;9.60;99.90;;;;;;5091274;28;20180;-58
2023/04/01 03:05:34;;;;;;;0.00;0.00;;;9.60;99.90;;;;;;5090716;28;20656;-58
2023/04/01 03:08:01;;;;;;;0.00;0.00;;;9.60;99.90;;;;;;5091428;28;20179;-58
2023/04/01 03:10:26;;;;;;;0.00;0.00;;;9.50;99.90;;;;;;5091099;28;20187;-58
2023/04/01 03:12:52;;;;;;;0.00;0.00;;;9.50;99.90;;;;;;5091271;28;20180;-57
2023/04/01 03:15:18;;;;;;;0.00;0.00;;;9.50;99.90;;;;;;5072841;28;20638;-58
2023/04/01 03:17:43;;;;;;;0.00;0.00;;;9.50;99.90;;;;;;5090895;28;20176;-58
2023/04/01 03:20:10;;;;;;;0.00;0.00;;;9.50;99.90;;;;;;5091208;28;20199;-58
2023/04/01 03:22:36;;;;;;;0.00;0.00;;;9.50;99.90;;;;;;5090856;28;20179;-58
2023/04/01 03:25:03;;;;;;;0.00;0.00;;;9.50;99.90;;;;;;5091241;28;20180;-58
2023/04/01 03:27:29;;;;;;;0.00;0.00;;;9.50;99.90;;;;;;5090480;28;20307;-58
2023/04/01 03:29:54;;;;;;;0.00;0.00;;;9.50;99.90;;;;;;5090747;28;20187;-58
2023/04/01 03:32:20;;;;;;;0.00;0.00;;;9.50;99.90;;;;;;5090980;28;20669;-58
2023/04/01 03:34:45;;;;;;;0.00;0.00;;;9.60;99.90;;;;;;5090511;28;20568;-58
2023/04/01 03:37:11;;;;;;;0.00;0.00;;;9.60;99.90;;;;;;5090727;28;20252;-57
2023/04/01 03:39:36;;;;;;;0.00;0.00;;;9.60;99.90;;;;;;5090826;28;20249;-58
2023/04/01 03:42:02;;;;;;;0.00;0.00;;;9.60;99.90;;;;;;5090657;28;20168;-58
2023/04/01 03:44:32;;;;;;;0.00;0.00;;;9.60;99.90;;;;;;5090329;28;20208;-58
2023/04/01 03:46:57;;;;;;;0.00;0.00;;;9.60;99.90;;;;;;5090756;28;20180;-58
2023/04/01 03:49:23;;;;;;;0.00;0.00;;;9.60;99.90;;;;;;5090580;28;20182;-58
2023/04/01 03:51:48;;;;;;;0.00;0.00;;;9.60;99.90;;;;;;5090074;28;20211;-58
2023/04/01 03:54:14;;;;;;;0.00;0.00;;;9.60;99.90;;;;;;5092435;28;20218;-58
2023/04/01 03:56:40;;;;;;;0.00;0.00;;;9.60;99.90;;;;;;5094741;28;20172;-58
2023/04/01 03:59:07;;;;;;;0.00;0.00;;;9.60;99.90;;;;;;5094702;28;20534;-58
2023/04/01 04:01:33;;;;;;;0.00;0.00;;;9.60;99.90;;;;;;5094733;28;20623;-58
2023/04/01 04:03:59;;;;;;;0.00;0.00;;;9.60;99.90;;;;;;5094635;28;20526;-58
2023/04/01 04:06:28;;;;;;;0.00;0.00;;;9.60;99.90;;;;;;5094408;28;20168;-58
2023/04/01 04:08:54;;;;;;;0.00;0.00;;;9.60;99.90;;;;;;5094693;28;20195;-57
2023/04/01 04:11:20;;;;;;;0.00;0.00;;;9.60;99.90;;;;;;5094513;28;20168;-58
2023/04/01 04:13:47;;;;;;;0.00;0.00;;;9.60;99.90;;;;;;5090066;28;20283;-58
2023/04/01 04:16:14;;;;;;;0.00;0.00;;;9.60;99.90;;;;;;5074102;28;20582;-58
2023/04/01 04:18:39;;;;;;;0.00;0.00;;;9.60;99.90;;;;;;5091662;28;20186;-58
2023/04/01 04:21:05;;;;;;;0.00;0.00;;;9.60;99.90;;;;;;5093888;28;20180;-58
2023/04/01 04:23:33;;;;;;;0.00;0.00;;;9.60;99.90;;;;;;5093582;28;20278;-58
2023/04/01 04:26:01;;;;;;;0.00;0.00;;;9.60;99.90;;;;;;5093708;28;20871;-58
2023/04/01 04:28:28;;;;;;;0.00;0.00;;;9.60;99.90;;;;;;5093649;28;20188;-58
2023/04/01 04:30:54;;;;;;;0.00;0.00;;;9.60;99.90;;;;;;5093393;28;20179;-58
2023/04/01 04:33:21;;;;;;;0.00;0.00;;;9.60;99.90;;;;;;5093785;28;20187;-58
2023/04/01 04:35:47;;;;;;;0.00;0.00;;;9.60;99.90;;;;;;5093361;28;20204;-58
2023/04/01 04:38:12;;;;;;;0.00;0.00;;;9.60;99.90;;;;;;5094108;28;20172;-57
2023/04/01 04:40:39;;;;;;;0.00;0.00;;;9.60;99.90;;;;;;5093352;28;20726;-58
2023/04/01 04:43:05;;;;;;;0.00;0.00;;;9.70;99.90;;;;;;5093549;28;20180;-58
2023/04/01 04:45:30;;;;;;;0.00;0.00;;;9.70;99.90;;;;;;5093685;28;20298;-58
2023/04/01 04:47:56;;;;;;;0.00;0.00;;;9.70;99.90;;;;;;5093168;28;20532;-58
2023/04/01 04:50:22;;;;;;;0.00;0.00;;;9.70;99.90;;;;;;5090297;28;20196;-57
2023/04/01 04:52:48;;;;;;;0.00;0.00;;;9.70;99.90;;;;;;5091928;28;20187;-58
2023/04/01 04:55:14;;;;;;;0.00;0.00;;;9.70;99.90;;;;;;5065323;28;20709;-58
2023/04/01 04:57:40;;;;;;;0.00;0.00;;;9.70;99.90;;;;;;5083295;28;20259;-57
2023/04/01 05:00:06;;;;;;;0.00;0.00;;;9.70;99.90;;;;;;5075195;28;20602;-58
2023/04/01 05:02:33;;;;;;;0.00;0.00;;;9.70;99.90;;;;;;5090926;28;20172;-58
2023/04/01 05:04:58;;;;;;;0.00;0.00;;;9.70;99.90;;;;;;5093024;28;20168;-57
2023/04/01 05:07:24;;;;;;;0.00;0.00;;;9.70;99.90;;;;;;5092579;28;20266;-58
2023/04/01 05:09:50;;;;;;;0.00;0.00;;;9.80;99.90;;;;;;5092259;28;20176;-57
2023/04/01 05:12:15;;;;;;;0.00;0.00;;;9.80;99.90;;;;;;5092660;28;20254;-57
2023/04/01 05:14:41;;;;;;;0.00;0.00;;;9.80;99.90;;;;;;5092624;28;20222;-57
2023/04/01 05:17:12;;;;;;;0.00;0.00;;;9.80;99.90;;;;;;5092961;28;20255;-57
2023/04/01 05:19:38;;;;;;;0.00;0.00;;;9.80;99.90;;;;;;5091989;28;20654;-57
2023/04/01 05:22:04;;;;;;;0.00;0.00;;;9.80;99.90;;;;;;5092998;28;20199;-57
2023/04/01 05:24:30;;;;;;;0.00;0.00;;;9.80;99.90;;;;;;5091938;28;20529;-58
2023/04/01 05:26:57;;;;;;;0.00;0.00;;;9.80;99.90;;;;;;5092463;28;20227;-57
2023/04/01 05:29:23;;;;;;;0.00;0.00;;;9.80;99.90;;;;;;5092553;28;20180;-58
2023/04/01 05:31:48;;;;;;;0.00;0.00;;;9.80;99.90;;;;;;5075907;28;20176;-58
2023/04/01 05:34:14;;;;;;;0.00;0.00;;;9.90;99.90;;;;;;5091996;28;20705;-61
2023/04/01 05:36:41;;;;;;;0.00;0.00;;;9.90;99.90;;;;;;5092760;28;20708;-61
2023/04/01 05:39:07;;;;;;;0.00;0.00;;;9.90;99.90;;;;;;5092534;28;20180;-59
2023/04/01 05:41:35;;;;;;;0.00;0.00;;;10.00;99.90;;;;;;5092408;28;20220;-58
2023/04/01 05:44:01;;;;;;;0.00;0.00;;;9.90;99.90;;;;;;5091928;28;20705;-58
2023/04/01 05:46:26;;;;;;;0.00;0.00;;;10.00;99.90;;;;;;5092541;28;20271;-59
2023/04/01 05:48:52;;;;;;;0.00;0.00;;;10.00;99.90;;;;;;5091835;28;20776;-57
2023/04/01 05:51:17;;;;;;;0.00;0.00;;;10.00;99.90;;;;;;5092286;28;20204;-58
2023/04/01 05:53:43;;;;;;;0.00;0.00;;;10.30;99.90;;;;;;5091774;28;20180;-59
2023/04/01 05:56:09;;;;;;;0.00;0.00;;;10.80;99.90;;;;;;5089994;28;20188;-59
2023/04/01 05:58:36;;;;;;;0.00;0.00;;;10.70;99.90;;;;;;5090248;28;20179;-60
2023/04/01 06:01:03;;;;;;;0.15;0.15;;;10.50;99.90;;;;;;5091681;28;20212;-60
2023/04/01 06:03:29;;;;;;;0.00;0.00;;;10.40;99.90;;;;;;5092381;28;20176;-59
2023/04/01 06:05:55;;;;;;;0.00;0.00;;;10.30;99.90;;;;;;5092022;28;20530;-60
2023/04/01 06:08:20;;;;;;;0.00;0.00;;;10.20;99.90;;;;;;5091748;28;20172;-59
2023/04/01 06:11:01;;;;;;;0.00;0.00;;;10.20;99.90;;;;;;5092257;28;20176;-60
2023/04/01 06:13:42;;;;;;;0.00;0.00;;;10.10;99.90;;;;;;5092199;28;20722;-59
2023/04/01 06:16:39;;;;;;;0.00;0.00;;;10.10;99.90;;;;;;5091728;28;20215;-60
2023/04/01 06:19:43;;;;;;;0.00;0.00;;;10.00;99.90;;;;;;5092134;28;20211;-60
2023/04/01 06:22:32;;;;;;;0.00;0.00;;;10.00;99.90;;;;;;5091852;28;20229;-59
2023/04/01 06:25:35;;;;;;;0.00;0.00;;;10.00;99.90;;;;;;5076381;28;20192;-59
2023/04/01 06:28:29;;;;;;;0.00;0.00;;;10.00;99.90;;;;;;5091696;28;20222;-59
2023/04/01 06:31:10;;;;;;;0.00;0.00;;;9.90;99.90;;;;;;5091564;28;20184;-60
2023/04/01 06:34:00;;;;;;;0.00;0.00;;;9.90;99.90;;;;;;5091492;28;20263;-59
2023/04/01 06:36:38;;;;;;;0.00;0.00;;;9.80;99.90;;;;;;5091773;28;20188;-59
2023/04/01 06:39:23;;;;;;;0.00;0.00;;;9.70;99.90;;;;;;5091851;28;20988;-59
2023/04/01 06:42:15;;;;;;;0.00;0.00;;;9.70;99.90;;;;;;5091598;28;20175;-59
2023/04/01 06:44:44;;;;;;;0.00;0.00;;;9.70;99.90;;;;;;5091697;28;20184;-59
2023/04/01 06:47:38;;;;;;;0.00;0.00;;;9.70;99.90;;;;;;5091681;28;20180;-59
2023/04/01 06:50:19;;;;;;;0.00;0.00;;;9.70;99.90;;;;;;5046328;28;20194;-60
2023/04/01 06:52:58;;;;;;;0.00;0.00;;;9.70;99.90;;;;;;5089072;28;20184;-59
2023/04/01 06:55:46;;;;;;;0.00;0.00;;;9.80;99.90;;;;;;5079956;28;20677;-59
2023/04/01 06:58:29;;;;;;;0.00;0.00;;;9.80;99.90;;;;;;5071183;28;20187;-60
2023/04/01 07:00:58;;;;;;;0.00;0.00;;;9.80;99.90;;;;;;5071056;28;20181;-59
2023/04/01 07:03:34;;;;;;;0.00;0.00;;;9.80;99.90;;;;;;5070890;28;20536;-59
2023/04/01 07:06:05;;;;;;;0.00;0.00;;;9.80;99.90;;;;;;5070969;28;20216;-59
2023/04/01 07:08:36;;;;;;;0.00;0.00;;;9.80;99.90;;;;;;5071091;28;20202;-61
2023/04/01 07:11:05;;;;;;;0.00;0.00;;;9.80;99.90;;;;;;5070721;28;20181;-60
2023/04/01 07:13:34;;;;;;;0.00;0.00;;;9.80;99.90;;;;;;5071029;28;20238;-60
2023/04/01 07:16:16;;;;;;;0.00;0.00;;;9.80;99.90;;;;;;5071044;28;20725;-60
2023/04/01 07:18:49;;;;;;;0.00;0.00;;;9.80;99.90;;;;;;5071024;28;20177;-60
2023/04/01 07:21:50;;;;;;;0.00;0.00;;;9.90;99.90;;;;;;5071157;28;20177;-60
2023/04/01 07:24:31;;;;;;;0.00;0.00;;;9.90;99.90;;;;;;5017936;28;20180;-60
2023/04/01 07:26:57;;;;;;;0.00;0.00;;;9.90;99.90;;;;;;5070906;28;20302;-60
2023/04/01 07:29:24;;;;;;;0.00;0.00;;;9.90;99.90;;;;;;5070214;28;20709;-60
2023/04/01 07:32:08;;;;;;;0.00;0.00;;;9.90;99.90;;;;;;5073570;28;20267;-60
2023/04/01 07:35:02;;;;;;;0.00;0.00;;;9.80;99.90;;;;;;5091061;28;20206;-60
2023/04/01 07:37:45;;;;;;;0.00;0.00;;;9.80;99.90;;;;;;5091057;28;20203;-60
2023/04/01 07:40:28;;;;;;;0.00;0.00;;;9.80;99.90;;;;;;5091391;28;20176;-60
2023/04/01 07:43:22;;;;;;;0.00;0.00;;;9.70;99.90;;;;;;5090965;28;20199;-60
2023/04/01 07:46:02;;;;;;;0.00;0.00;;;9.70;99.90;;;;;;5045793;28;20219;-60
2023/04/01 07:48:46;;;;;;;0.00;0.00;;;9.70;99.90;;;;;;5091017;28;20255;-60
2023/04/01 07:51:36;;;;;;;0.00;0.00;;;9.70;99.90;;;;;;5091083;28;20221;-60
2023/04/01 07:54:06;;;;;;;0.10;0.10;;;9.70;99.90;;;;;;5089029;28;20221;-60
2023/04/01 07:56:42;;;;;;;0.00;0.00;;;9.80;99.90;;;;;;5086604;28;20668;-60
2023/04/01 07:59:07;;;;;;;0.00;0.00;;;9.70;99.90;;;;;;5091080;28;20187;-60
2023/04/01 08:01:45;;;;;;;0.00;0.00;;;9.70;99.90;;;;;;5090816;28;20180;-60
2023/04/01 08:04:41;;;;;;;0.00;0.00;;;9.70;99.90;;;;;;5091000;28;20207;-60
2023/04/01 08:07:13;;;;;;;0.00;0.00;;;9.70;99.90;;;;;;5090748;28;20173;-60
2023/04/01 08:10:17;;;;;;;0.20;0.20;;;9.60;99.90;;;;;;5090852;28;20180;-61
2023/04/01 08:13:10;;;;;;;0.00;0.00;;;9.50;99.90;;;;;;5090549;28;20176;-60
2023/04/01 08:16:17;;;;;;;0.00;0.00;;;9.50;99.90;;;;;;5090673;28;20212;-60
2023/04/01 08:19:30;;;;;;;0.00;0.00;;;9.40;99.90;;;;;;5090769;28;20168;-60
2023/04/01 08:22:04;;;;;;;0.00;0.00;;;9.30;99.90;;;;;;5090655;28;20255;-60
2023/04/01 08:24:45;;;;;;;0.00;0.00;;;9.30;99.90;;;;;;5090838;28;20689;-60
2023/04/01 08:27:22;;;;;;;0.00;0.00;;;9.30;99.90;;;;;;5089361;28;20258;-60
2023/04/01 08:30:03;;;;;;;0.00;0.00;;;9.40;99.90;;;;;;5086990;28;20634;-61
2023/04/01 08:32:36;;;;;;;0.00;0.00;;;9.40;99.90;;;;;;5084571;28;20188;-61
2023/04/01 08:35:17;;;;;;;0.00;0.00;;;9.40;99.90;;;;;;5089936;28;20219;-61
2023/04/01 08:37:43;;;;;;;0.00;0.00;;;9.50;99.90;;;;;;5089642;28;20168;-61
2023/04/01 08:40:31;;;;;;;0.00;0.00;;;9.40;99.90;;;;;;5091297;28;20180;-61
2023/04/01 08:43:11;;;;;;;0.20;0.20;;;9.40;99.90;;;;;;5088458;28;20180;-61
2023/04/01 08:45:44;;;;;;;0.00;0.00;;;9.50;99.90;;;;;;5094101;28;20719;-60
2023/04/01 08:48:36;;;;;;;0.00;0.00;;;9.40;99.90;;;;;;5094422;28;20230;-60
2023/04/01 08:51:26;;;;;;;0.00;0.00;;;9.50;99.90;;;;;;5094236;28;20173;-60
2023/04/01 08:54:13;;;;;;;0.00;0.00;;;9.60;99.90;;;;;;5094073;28;20279;-60
2023/04/01 08:57:05;;;;;;;0.00;0.00;;;9.70;99.90;;;;;;5094158;28;20257;-61
2023/04/01 09:00:00;;;;;;;0.00;0.00;;;9.80;99.90;;;;;;5092192;28;20202;-61
2023/04/01 09:02:48;;;;;;;0.00;0.00;;;9.80;99.90;;;;;;5073859;28;20173;-61
2023/04/01 09:05:35;;;;;;;0.00;0.00;;;10.00;99.90;;;;;;5073903;28;20219;-62
2023/04/01 09:08:22;;;;;;;0.00;0.00;;;10.10;99.90;;;;;;5073687;28;20623;-61
2023/04/01 09:11:05;;;;;;;0.00;0.00;;;10.30;99.90;;;;;;5073630;28;20199;-61
2023/04/01 09:13:59;;;;;;;0.00;0.00;;;10.40;99.90;;;;;;5073725;28;20181;-61
2023/04/01 09:16:46;;;;;;;0.13;0.13;;;10.50;99.90;;;;;;5073610;28;20250;-61
2023/04/01 09:19:35;;;;;;;0.00;0.00;;;10.50;99.90;;;;;;5073618;28;20670;-61
2023/04/01 09:22:25;;;;;;;0.00;0.00;;;10.50;99.90;;;;;;5073386;28;20184;-61
2023/04/01 09:25:09;;;;;;;0.00;0.00;;;10.50;99.90;;;;;;5073430;28;20635;-61
2023/04/01 09:28:07;;;;;;;0.00;0.00;;;10.50;99.90;;;;;;5073164;28;20223;-61
2023/04/01 09:31:06;;;;;;;0.00;0.00;;;10.50;99.90;;;;;;5073327;28;20242;-61
2023/04/01 09:34:06;;;;;;;0.00;0.00;;;10.50;99.90;;;;;;5089969;28;20329;-61
2023/04/01 09:36:43;;;;;;;0.00;0.00;;;10.60;99.90;;;;;;4991253;28;20223;-61
2023/04/01 09:39:31;;;;;;;0.00;0.00;;;10.70;99.90;;;;;;5080106;28;20191;-61
2023/04/01 09:42:13;;;;;;;0.00;0.00;;;10.70;99.90;;;;;;5092268;28;20263;-61
2023/04/01 09:44:57;;;;;;;0.00;0.00;;;10.80;99.90;;;;;;5092456;28;20238;-61
2023/04/01 09:47:43;;;;;;;0.00;0.00;;;10.90;99.90;;;;;;5092127;28;20172;-61
2023/04/01 09:50:31;;;;;;;0.00;0.00;;;10.90;99.90;;;;;;5091805;28;20568;-60
2023/04/01 09:53:19;;;;;;;0.00;0.00;;;10.80;99.90;;;;;;5089971;28;20711;-62
2023/04/01 09:56:23;;;;;;;0.00;0.00;;;10.80;99.90;;;;;;5088771;28;20212;-62
2023/04/01 09:59:15;;;;;;;0.00;0.00;;;10.80;99.90;;;;;;5092651;28;20636;-62
2023/04/01 10:01:58;;;;;;;0.00;0.00;;;10.80;99.90;;;;;;5092446;28;20199;-61
2023/04/01 10:04:51;;;;;;;0.00;0.00;;;10.70;99.90;;;;;;5092522;28;20643;-62
2023/04/01 10:07:49;;;;;;;0.00;0.00;;;10.70;99.90;;;;;;5092719;28;20198;-61
2023/04/01 10:10:42;;;;;;;0.40;0.40;;;10.70;99.90;;;;;;5061033;28;20224;-61
2023/04/01 10:13:49;;;;;;;0.00;0.00;;;10.50;99.90;;;;;;5072115;28;20173;-61
2023/04/01 10:16:40;;;;;;;0.00;0.00;;;10.40;99.90;;;;;;5024665;28;20608;-61
2023/04/01 10:19:14;;;;;;;0.00;0.00;;;10.40;99.90;;;;;;5072217;28;20173;-61
2023/04/01 10:22:13;;;;;;;0.00;0.00;;;10.50;99.90;;;;;;5071769;28;20199;-61
2023/04/01 10:24:53;;;;;;;0.65;0.10;;;10.60;99.90;;;;;;5071980;28;20191;-61
2023/04/01 10:27:18;;;;;;;0.00;0.00;;;10.70;99.90;;;;;;5072808;28;20277;-61
2023/04/01 10:29:59;;;;;;;0.00;0.00;;;10.70;99.90;;;;;;5091621;28;20184;-61
2023/04/01 10:32:45;;;;;;;0.00;0.00;;;10.70;99.90;;;;;;5091823;28;20175;-62
2023/04/01 10:35:43;;;;;;;0.00;0.00;;;10.90;99.90;;;;;;5092039;28;20215;-62
2023/04/01 10:38:35;;;;;;;0.00;0.00;;;10.90;99.90;;;;;;5091276;28;20204;-62
2023/04/01 10:41:45;;;;;;;0.00;0.00;;;10.90;99.90;;;;;;5052558;28;20537;-62
2023/04/01 10:44:18;;;;;;;0.00;0.00;;;10.80;99.90;;;;;;5091379;28;20168;-61
2023/04/01 10:47:21;;;;;;;0.00;0.00;;;10.80;99.90;;;;;;5091672;28;20284;-62
2023/04/01 10:50:08;;;;;;;0.00;0.00;;;10.80;99.90;;;;;;5091178;28;20180;-62
2023/04/01 10:53:11;;;;;;;0.00;0.00;;;10.90;99.90;;;;;;5091072;28;20238;-62
2023/04/01 10:56:14;;;;;;;0.00;0.00;;;10.90;99.90;;;;;;5091361;28;20620;-62
2023/04/01 10:58:58;;;;;;;0.00;0.00;;;10.70;99.90;;;;;;5084617;28;20180;-61
2023/04/01 11:02:15;;;;;;;0.00;0.00;;;10.70;99.90;;;;;;5091303;28;20180;-62
2023/04/01 11:05:15;;;;;;;0.00;0.00;;;10.70;99.90;;;;;;5091050;28;20186;-62
2023/04/01 11:08:12;;;;;;;0.00;0.00;;;10.60;99.90;;;;;;5090813;28;20230;-62
2023/04/01 11:11:05;;;;;;;0.00;0.00;;;10.70;99.90;;;;;;5091296;28;20207;-62
2023/04/01 11:13:51;;;;;;;0.00;0.00;;;10.70;99.90;;;;;;5090925;28;20168;-62
2023/04/01 11:16:35;;;;;;;0.00;0.00;;;10.70;99.90;;;;;;5090091;28;20216;-62
2023/04/01 11:19:38;;;;;;;0.00;0.00;;;10.70;99.90;;;;;;5090917;28;20172;-62
2023/04/01 11:22:35;;;;;;;0.00;0.00;;;10.70;99.90;;;;;;5090557;28;20230;-62
2023/04/01 11:25:19;;;;;;;0.00;0.00;;;10.70;99.90;;;;;;5090713;28;20183;-62
2023/04/01 11:28:05;;;;;;;0.00;0.00;;;10.70;99.90;;;;;;5090692;28;20254;-61
2023/04/01 11:30:34;;;;;;;0.00;0.00;;;10.70;99.90;;;;;;5090290;28;20180;-61
2023/04/01 11:33:11;;;;;;;0.00;0.00;;;10.70;99.90;;;;;;5090948;28;20265;-61
2023/04/01 11:35:59;;;;;;;0.00;0.00;;;10.70;99.90;;;;;;5090421;28;20212;-61
2023/04/01 11:38:42;;;;;;;0.00;0.00;;;10.70;99.90;;;;;;5086669;28;20172;-61
2023/04/01 11:41:26;;;;;;;0.00;0.00;;;10.80;99.90;;;;;;5070782;28;20177;-61
2023/04/01 11:44:13;;;;;;;0.00;0.00;;;10.80;99.90;;;;;;5070956;28;20172;-61
2023/04/01 11:46:59;;;;;;;0.00;0.00;;;10.80;99.90;;;;;;5070854;28;20173;-61
2023/04/01 11:49:47;;;;;;;0.00;0.00;;;10.70;99.90;;;;;;5070830;28;20180;-61
2023/04/01 11:52:38;;;;;;;0.00;0.00;;;10.70;99.90;;;;;;5071084;28;20176;-61
2023/04/01 11:55:19;;;;;;;0.00;0.00;;;10.60;99.90;;;;;;5070637;28;20240;-61
2023/04/01 11:58:04;;;;;;;0.00;0.00;;;10.60;99.90;;;;;;5081834;28;20184;-61
2023/04/01 12:00:44;;;;;;;0.00;0.00;;;10.60;99.90;;;;;;5089805;28;20653;-61
2023/04/01 12:03:47;;;;;;;0.00;0.00;;;10.60;99.90;;;;;;5091042;28;20172;-61
2023/04/01 12:06:40;;;;;;;0.00;0.00;;;10.60;99.90;;;;;;5091042;28;20175;-61
2023/04/01 12:09:15;;;;;;;0.00;0.00;;;10.60;99.90;;;;;;5091019;28;20180;-61
2023/04/01 12:12:21;;;;;;;0.00;0.00;;;10.50;99.90;;;;;;5090655;28;20179;-61
2023/04/01 12:15:03;;;;;;;0.00;0.00;;;10.50;99.90;;;;;;5091570;28;20206;-61
2023/04/01 12:17:52;;;;;;;0.00;0.00;;;10.50;99.90;;;;;;5094933;28;20207;-61
2023/04/01 12:20:37;;;;;;;0.00;0.00;;;10.60;99.90;;;;;;5094856;28;20172;-61
2023/04/01 12:23:09;;;;;;;0.00;0.00;;;10.60;99.90;;;;;;5094643;28;20218;-61
2023/04/01 12:25:59;;;;;;;0.00;0.00;;;10.70;99.90;;;;;;5094859;28;20184;-61
2023/04/01 12:29:03;;;;;;;0.00;0.00;;;10.60;99.90;;;;;;5094846;28;20203;-61
2023/04/01 12:31:36;;;;;;;0.00;0.00;;;10.60;99.90;;;;;;5089427;28;20184;-61
2023/04/01 12:34:52;;;;;;;0.00;0.00;;;10.60;99.90;;;;;;5074180;28;20192;-60
2023/04/01 12:37:43;;;;;;;0.00;0.00;;;10.60;99.90;;;;;;5070946;28;20193;-61
2023/04/01 12:40:35;;;;;;;0.00;0.00;;;10.70;99.90;;;;;;5074270;28;20169;-61
2023/04/01 12:43:32;;;;;;;0.00;0.00;;;10.90;99.90;;;;;;5074235;28;20185;-61
2023/04/01 12:46:03;;;;;;;0.00;0.00;;;11.10;99.90;;;;;;5074127;28;20263;-61
2023/04/01 12:48:57;;;;;;;0.00;0.00;;;11.30;99.90;;;;;;5074051;28;20211;-61
2023/04/01 12:51:36;;;;;;;0.00;0.00;;;11.30;99.90;;;;;;5074071;28;20192;-61
2023/04/01 12:54:40;;;;;;;0.00;0.00;;;11.30;99.90;;;;;;5073899;28;20184;-61
2023/04/01 12:57:31;;;;;;;0.00;0.00;;;11.40;99.90;;;;;;5073975;28;20173;-61
2023/04/01 13:00:12;;;;;;;0.00;0.00;;;11.30;99.90;;;;;;5074375;28;20322;-61
2023/04/01 13:02:56;;;;;;;0.00;0.00;;;11.20;99.90;;;;;;5055706;28;20491;-61
2023/04/01 13:05:34;;;;;;;0.00;0.00;;;11.10;99.90;;;;;;5073612;28;20180;-60
2023/04/01 13:08:23;;;;;;;0.00;0.00;;;11.10;99.90;;;;;;5073693;28;20181;-61
2023/04/01 13:11:08;;;;;;;0.00;0.00;;;11.10;99.90;;;;;;5073529;28;20260;-61
2023/04/01 13:14:02;;;;;;;0.00;0.00;;;11.00;99.90;;;;;;5073588;28;20294;-61
2023/04/01 13:16:30;;;;;;;0.00;0.00;;;11.00;99.90;;;;;;5073629;28;20211;-61
2023/04/01 13:19:25;;;;;;;0.00;0.00;;;11.00;99.90;;;;;;5073494;28;20261;-61
2023/04/01 13:22:19;;;;;;;0.03;0.03;;;11.10;99.90;;;;;;5073482;28;20173;-61
2023/04/01 13:25:03;;;;;;;0.00;0.00;;;11.20;99.90;;;;;;5073326;28;20216;-61
2023/04/01 13:27:55;;;;;;;0.00;0.00;;;11.30;99.90;;;;;;5071867;28;20220;-60
2023/04/01 13:30:20;;;;;;;0.00;0.00;;;11.30;99.90;;;;;;5034365;28;20556;-61
2023/04/01 13:33:28;;;;;;;0.00;0.00;;;11.20;99.90;;;;;;5083738;28;20177;-61
2023/04/01 13:36:24;;;;;;;0.00;0.00;;;11.10;99.90;;;;;;5057159;28;20224;-61
2023/04/01 13:39:10;;;;;;;0.00;0.00;;;11.00;99.90;;;;;;5093147;28;20178;-61
2023/04/01 13:41:41;;;;;;;0.00;0.00;;;10.90;99.90;;;;;;5093124;28;20172;-61
2023/04/01 13:44:17;;;;;;;0.00;0.00;;;10.80;99.90;;;;;;5093163;28;20252;-61
2023/04/01 13:47:12;;;;;;;0.00;0.00;;;10.70;99.90;;;;;;5092890;28;20176;-61
2023/04/01 13:50:12;;;;;;;0.00;0.00;;;10.60;99.90;;;;;;5092983;28;20172;-61